createdAt,value
2022-10-17T00:00:00.343Z,93.5
2022-10-17T00:05:00.707Z,93.8
2022-10-17T00:10:00.658Z,93.8
2022-10-17T00:15:00.430Z,93.8
2022-10-17T00:20:00.735Z,93.8
2022-10-17T00:25:00.746Z,93.5
2022-10-17T00:30:00.524Z,93.5
2022-10-17T00:35:00.419Z,93.8
2022-10-17T00:40:00.487Z,94.1
2022-10-17T00:45:00.597Z,94.4
2022-10-17T00:55:00.403Z,94.4
2022-10-17T01:00:00.807Z,94.7
2022-10-17T01:05:00.414Z,95.3
2022-10-17T01:10:00.406Z,94.7
2022-10-17T01:15:00.385Z,94.7
2022-10-17T01:20:00.682Z,95
2022-10-17T01:25:00.415Z,94.7
2022-10-17T01:30:01.318Z,95.3
2022-10-17T01:35:00.798Z,95.3
2022-10-17T01:40:01.041Z,95.6
2022-10-17T01:45:00.909Z,95.3
2022-10-17T01:50:01.769Z,95.3
2022-10-17T01:55:01.155Z,95.3
2022-10-17T02:00:00.384Z,95.3
2022-10-17T02:05:02.565Z,95
2022-10-17T02:10:01.593Z,94.6
2022-10-17T02:15:01.445Z,94.6
2022-10-17T02:20:01.547Z,95.3
2022-10-17T02:25:01.500Z,95.3
2022-10-17T02:30:01.709Z,95.5
2022-10-17T02:35:01.469Z,95.9
2022-10-17T02:40:01.563Z,95.3
2022-10-17T02:45:01.516Z,95.2
2022-10-17T02:50:01.434Z,96.2
2022-10-17T02:55:01.390Z,95.9
2022-10-17T03:00:01.427Z,95.6
2022-10-17T03:05:01.381Z,95.3
2022-10-17T03:10:01.381Z,95.3
2022-10-17T03:15:01.474Z,95.3
2022-10-17T03:20:01.380Z,94.9
2022-10-17T03:25:01.403Z,95.2
2022-10-17T03:30:01.747Z,95.2
2022-10-17T03:35:01.493Z,95.3
2022-10-17T03:40:01.561Z,95.6
2022-10-17T03:45:01.663Z,95.6
2022-10-17T03:50:01.614Z,95.3
2022-10-17T03:55:01.477Z,94.9
2022-10-17T04:00:01.582Z,94.9
2022-10-17T04:05:01.583Z,94.9
2022-10-17T04:10:01.554Z,95.2
2022-10-17T04:15:01.493Z,95.2
2022-10-17T04:20:01.636Z,94.9
2022-10-17T04:25:01.550Z,95.2
2022-10-17T04:30:01.585Z,95.2
2022-10-17T04:35:01.506Z,95.5
2022-10-17T04:40:01.569Z,95.8
2022-10-17T04:45:01.508Z,95.8
2022-10-17T04:50:01.516Z,95.5
2022-10-17T04:55:01.512Z,95.2
2022-10-17T05:00:01.753Z,95.2
2022-10-17T05:05:01.624Z,95.2
2022-10-17T05:10:01.565Z,95.1
2022-10-17T05:15:00.336Z,95.1
2022-10-17T05:20:00.340Z,95.1
2022-10-17T05:25:00.326Z,95.1
2022-10-17T05:30:00.382Z,95.1
2022-10-17T05:35:00.401Z,95.1
2022-10-17T05:40:00.499Z,94.8
2022-10-17T05:45:00.411Z,94.8
2022-10-17T05:50:00.530Z,94.7
2022-10-17T05:55:00.407Z,95
2022-10-17T06:00:00.662Z,95.7
2022-10-17T06:05:00.385Z,95.7
2022-10-17T06:10:00.444Z,95.7
2022-10-17T06:15:00.408Z,96.3
2022-10-17T06:20:00.546Z,96.3
2022-10-17T06:25:00.406Z,96.4
2022-10-17T06:30:02.183Z,96.7
2022-10-17T06:35:00.403Z,97
2022-10-17T06:40:00.415Z,97.1
2022-10-17T06:45:00.585Z,97.1
2022-10-17T06:50:00.997Z,97.2
2022-10-17T06:55:00.579Z,96.9
2022-10-17T07:00:00.433Z,96.9
2022-10-17T07:05:00.438Z,96.6
2022-10-17T07:10:00.478Z,96.6
2022-10-17T07:15:00.450Z,96.7
2022-10-17T07:20:00.517Z,97.1
2022-10-17T07:25:00.462Z,96.8
2022-10-17T07:30:00.485Z,97.2
2022-10-17T07:35:00.531Z,96.3
2022-10-17T07:40:00.867Z,96.1
2022-10-17T07:45:00.599Z,95.8
2022-10-17T07:50:00.936Z,94
2022-10-17T07:55:01.478Z,94.3
2022-10-17T08:00:02.313Z,92.8
2022-10-17T08:05:01.410Z,93.5
2022-10-17T08:10:01.120Z,92.6
2022-10-17T08:15:00.757Z,91.1
2022-10-17T08:20:00.745Z,87.9
2022-10-17T08:25:00.698Z,88.6
2022-10-17T08:30:00.829Z,88.4
2022-10-17T08:35:00.573Z,86.2
2022-10-17T08:40:00.615Z,86.9
2022-10-17T08:45:00.680Z,85.7
2022-10-17T08:50:00.638Z,83.8
2022-10-17T08:55:00.928Z,83.2
2022-10-17T09:00:01.150Z,82
2022-10-17T09:05:01.264Z,80.7
2022-10-17T09:10:00.598Z,80.8
2022-10-17T09:15:01.036Z,79.9
2022-10-17T09:20:00.887Z,79.6
2022-10-17T09:25:01.080Z,78.9
2022-10-17T09:30:01.265Z,78.6
2022-10-17T09:35:00.939Z,78.4
2022-10-17T09:40:00.575Z,78.7
2022-10-17T09:45:00.492Z,77.4
2022-10-17T09:50:00.434Z,77.1
2022-10-17T09:55:00.474Z,77.7
2022-10-17T10:00:00.631Z,78.4
2022-10-17T10:05:05.189Z,78.4
2022-10-17T10:10:00.468Z,78.7
2022-10-17T10:15:00.479Z,77.8
2022-10-17T10:20:00.506Z,77.2
2022-10-17T10:25:00.493Z,77.9
2022-10-17T10:30:00.465Z,77.2
2022-10-17T10:35:00.512Z,76.6
2022-10-17T10:40:00.464Z,75.4
2022-10-17T10:45:00.498Z,74.1
2022-10-17T10:50:00.531Z,74.1
2022-10-17T10:55:00.507Z,72.9
2022-10-17T11:00:00.516Z,73.2
2022-10-17T11:05:00.525Z,72
2022-10-17T11:10:00.430Z,72.6
2022-10-17T11:15:00.350Z,72
2022-10-17T11:20:00.132Z,72.3
2022-10-17T11:25:00.115Z,71.7
2022-10-17T11:30:00.128Z,72
2022-10-17T11:35:00.150Z,71.7
2022-10-17T11:40:00.142Z,71.1
2022-10-17T11:45:00.141Z,71.1
2022-10-17T11:51:59.697Z,70.1
2022-10-17T11:55:00.142Z,67.2
2022-10-17T12:00:00.143Z,70.1
2022-10-17T12:05:00.157Z,69.8
2022-10-17T12:10:00.177Z,67.6
2022-10-17T12:15:00.200Z,68.9
2022-10-17T12:20:00.133Z,69.2
2022-10-17T12:25:00.188Z,69.9
2022-10-17T12:30:00.176Z,69.9
2022-10-17T12:35:01.313Z,69.9
2022-10-17T12:40:00.189Z,66.7
2022-10-17T12:45:00.222Z,69
2022-10-17T12:50:00.200Z,68
2022-10-17T12:55:10.854Z,68
2022-10-17T13:00:00.217Z,65.4
2022-10-17T13:05:00.215Z,66.7
2022-10-17T13:10:00.236Z,65.4
2022-10-17T13:15:00.235Z,65.8
2022-10-17T13:20:00.268Z,65.4
2022-10-17T13:25:00.267Z,66.1
2022-10-17T13:30:00.252Z,65.4
2022-10-17T13:35:00.262Z,66.7
2022-10-17T13:40:07.063Z,67.4
2022-10-17T13:45:00.275Z,66.1
2022-10-17T13:50:00.278Z,66.4
2022-10-17T13:55:00.259Z,66.7
2022-10-17T14:00:00.311Z,67
2022-10-17T14:05:16.599Z,68
2022-10-17T14:10:00.292Z,66.3
2022-10-17T14:15:10.814Z,66.7
2022-10-17T14:20:16.503Z,68.3
2022-10-17T14:25:02.593Z,68
2022-10-17T14:30:00.333Z,67.9
2022-10-17T14:35:16.607Z,69.2
2022-10-17T14:40:00.325Z,68.6
2022-10-17T14:45:00.328Z,69.2
2022-10-17T14:50:00.330Z,71.1
2022-10-17T14:55:00.348Z,71.1
2022-10-17T15:00:00.352Z,70.8
2022-10-17T15:05:00.344Z,71.7
2022-10-17T15:10:00.340Z,71.7
2022-10-17T15:15:00.354Z,72.9
2022-10-17T15:20:00.367Z,73.6
2022-10-17T15:25:00.371Z,74.2
2022-10-17T15:30:00.417Z,74.8
2022-10-17T15:35:00.364Z,75.4
2022-10-17T15:40:00.382Z,76
2022-10-17T15:45:00.437Z,76.6
2022-10-17T15:50:00.403Z,77.6
2022-10-17T15:55:04.155Z,78.2
2022-10-17T16:00:00.454Z,78.2
2022-10-17T16:05:00.396Z,78.5
2022-10-17T16:10:00.416Z,79.1
2022-10-17T16:15:00.422Z,79.7
2022-10-17T16:20:00.412Z,80
2022-10-17T16:25:00.419Z,80.2
2022-10-17T16:30:00.466Z,80.8
2022-10-17T16:35:00.625Z,81.4
2022-10-17T16:40:00.829Z,81.7
2022-10-17T16:45:00.827Z,82
2022-10-17T16:50:00.760Z,82.9
2022-10-17T16:55:00.622Z,83.2
2022-10-17T17:00:00.626Z,83.8
2022-10-17T17:05:00.676Z,83.8
2022-10-17T17:10:00.579Z,84.3
2022-10-17T17:15:00.587Z,85
2022-10-17T17:20:00.544Z,85.5
2022-10-17T17:25:00.383Z,86.1
2022-10-17T17:30:00.654Z,86.4
2022-10-17T17:35:00.819Z,86.7
2022-10-17T17:40:00.134Z,87.3
2022-10-17T17:45:00.389Z,87.3
2022-10-17T17:50:00.867Z,87.3
2022-10-17T17:55:00.613Z,87.9
2022-10-17T18:00:01.583Z,88.2
2022-10-17T18:05:00.156Z,88.5
2022-10-17T18:10:00.299Z,88.5
2022-10-17T18:15:00.174Z,88.8
2022-10-17T18:20:00.165Z,89.1
2022-10-17T18:25:00.817Z,89.4
2022-10-17T18:30:00.923Z,90
2022-10-17T18:35:00.650Z,89.7
2022-10-17T18:40:00.590Z,89.7
2022-10-17T18:45:00.654Z,89.6
2022-10-17T18:50:01.354Z,90
2022-10-17T18:55:01.739Z,90.6
2022-10-17T19:00:00.432Z,90.9
2022-10-17T19:05:00.460Z,90.2
2022-10-17T19:10:00.242Z,90.6
2022-10-17T19:15:00.221Z,90.9
2022-10-17T19:20:00.227Z,90.8
2022-10-17T19:25:00.236Z,90.8
2022-10-17T19:30:00.256Z,91.2
2022-10-17T19:35:00.257Z,91.5
2022-10-17T19:40:00.251Z,91.5
2022-10-17T19:45:00.263Z,90.8
2022-10-17T19:50:00.359Z,91.1
2022-10-17T19:55:00.267Z,92.1
2022-10-17T20:00:00.282Z,92.1
2022-10-17T20:05:17.434Z,92.1
2022-10-17T20:10:00.293Z,91.8
2022-10-17T20:15:00.300Z,91.4
2022-10-17T20:20:02.415Z,92
2022-10-17T20:25:00.288Z,92
2022-10-17T20:30:00.308Z,92
2022-10-17T20:35:00.313Z,92
2022-10-17T20:40:23.017Z,92
2022-10-17T20:45:00.341Z,92
2022-10-17T20:50:00.318Z,91.4
2022-10-17T20:55:00.341Z,91.4
2022-10-17T21:00:00.540Z,91.7
2022-10-17T21:05:00.519Z,91.4
2022-10-17T21:10:17.761Z,91.4
2022-10-17T21:15:00.655Z,91.4
2022-10-17T21:20:00.843Z,91.6
2022-10-17T21:25:00.874Z,91.9
2022-10-17T21:30:00.873Z,92.3
2022-10-17T21:35:00.669Z,92.6
2022-10-17T21:40:00.811Z,92.5
2022-10-17T21:45:00.790Z,92.5
2022-10-17T21:50:00.716Z,92.5
2022-10-17T21:55:00.626Z,92.2
2022-10-17T22:00:00.958Z,92.5
2022-10-17T22:05:00.609Z,92.5
2022-10-17T22:10:00.671Z,92.2
2022-10-17T22:15:00.814Z,92.5
2022-10-17T22:20:01.119Z,92.5
2022-10-17T22:25:00.696Z,92.4
2022-10-17T22:30:00.881Z,92.8
2022-10-17T22:35:00.782Z,92.5
2022-10-17T22:40:00.899Z,92.7
2022-10-17T22:45:00.755Z,93
2022-10-17T22:50:01.000Z,93
2022-10-17T22:55:00.725Z,93.3
2022-10-17T23:00:01.098Z,93
2022-10-17T23:05:00.637Z,93
2022-10-17T23:10:00.724Z,93.3
2022-10-17T23:15:00.440Z,93.3
2022-10-17T23:20:00.374Z,93
2022-10-17T23:25:00.476Z,93
2022-10-17T23:30:00.367Z,93.6
2022-10-17T23:35:00.344Z,93.6
2022-10-17T23:40:00.351Z,93.6
2022-10-17T23:45:00.349Z,93.6
2022-10-17T23:50:00.365Z,93.9
2022-10-17T23:55:00.369Z,93.6
